Stunt Ranch Reserve, Santa Monica Mtns, California Weather observations

Data are for 10 minute period ending at time listed.
 Day   Time   Solar   Ave.   Ave.  Ave.  Vector  Max.   Baro.   Total    
  of    of     Rad.   Air    Rel.  Wind   Wind   Wind  Press.  Precip.   
Year   Day            Temp.  Hum.  Speed  Dir.   Gust                    
2019   (PST)  Kw/m2    F      %     mph   deg.    mph    mb.     in.     
-------------------------------------------------------------------------
  83   22:10   0.00   50.5    78    0.5   138     1.5   975.9    0.00 
  83   22:20   0.00   49.9    80    0.5   160     1.7   975.9    0.00 
  83   22:30   0.00   49.7    80    0.5   172     2.3   976.0    0.00 
  83   22:40   0.00   49.2    82    1.1   147     2.3   975.9    0.00 
  83   22:50   0.00   49.3    82    1.6   272     3.2   975.9    0.00 
  83   23:00   0.00   49.2    82    1.6   229     2.8   976.1    0.00 
  83   23:10   0.00   49.5    82    2.5   219     3.5   976.0    0.00 
  83   23:20   0.00   49.3    83    1.3   266     2.2   976.1    0.00 
  83   23:30   0.00   49.0    84    2.1   237     3.7   976.1    0.00 
  83   23:40   0.00   48.7    86    1.5   184     4.9   976.1    0.00 
  83   23:50   0.00   48.3    86    4.0   163     5.8   976.0    0.00 
  84    0:00   0.00   48.3    85    1.1   193     3.6   975.9    0.00 
  84    0:10   0.00   48.4    85    0.9   233     2.3   975.8    0.00 
  84    0:20   0.00   48.6    84    0.4   244     1.4   975.6    0.00 
  84    0:30   0.00   48.5    83    1.6   275     2.8   975.7    0.00 
  84    0:40   0.00   47.8    85    1.9   167     3.9   975.7    0.00 
  84    0:50   0.00   48.1    86    1.2   161     3.5   975.6    0.00 
  84    1:00   0.00   48.4    85    0.3   284     1.2   975.5    0.00 
  84    1:10   0.00   48.1    85    1.8   141     2.8   975.5    0.00 
  84    1:20   0.00   48.2    84    0.4   352     1.8   975.3    0.00 
  84    1:30   0.00   48.4    84    0.6   262     2.0   975.2    0.00 
  84    1:40   0.00   48.2    83    1.0   212     2.2   975.0    0.00 
  84    1:50   0.00   48.9    80    0.2   252     1.2   974.9    0.00 
  84    2:00   0.00   48.8    81    0.3   186     1.2   974.8    0.00 
  84    2:10   0.00   48.9    79    1.0   271     1.9   974.8    0.00 
  84    2:20   0.00   49.3    79    0.4   202     2.0   974.8    0.00 
  84    2:30   0.00   48.8    80    0.1   165     1.0   974.6    0.00 
  84    2:40   0.00   48.9    80    0.0     0     0.0   974.6    0.00 
  84    2:50   0.00   48.8    81    0.0     0     0.0   974.5    0.00 
  84    3:00   0.00   48.7    82    0.2   296     0.8   974.5    0.00 
  84    3:10   0.00   49.0    82    1.0   151     3.1   974.4    0.00 
  84    3:20   0.00   49.7    80    0.7   176     2.5   974.3    0.00 
  84    3:30   0.00   49.6    81    0.2   273     1.0   974.3    0.00 
  84    3:40   0.00   49.1    82    0.8   292     1.6   974.2    0.00 
  84    3:50   0.00   49.1    82    0.9   125     2.1   974.2    0.00 
  84    4:00   0.00   48.8    82    0.7   174     2.0   974.1    0.00 
  84    4:10   0.00   49.0    82    0.8   266     2.2   974.0    0.00 
  84    4:20   0.00   48.9    82    2.5   278     4.6   974.1    0.00 
  84    4:30   0.00   46.8    86    2.4   147     4.5   974.2    0.00 
  84    4:40   0.00   46.4    90    3.3   124     5.0   974.1    0.00 
  84    4:50   0.00   47.8    87    2.1   204     3.7   974.0    0.00 
  84    5:00   0.00   48.4    86    1.4   265     2.9   974.1    0.00 
  84    5:10   0.00   48.1    87    1.3   120     3.6   974.1    0.00 
  84    5:20   0.00   48.6    86    1.4   119     3.6   974.0    0.00 
  84    5:30   0.00   49.7    83    1.0   120     1.8   974.0    0.00 
  84    5:40   0.00   50.5    80    0.9   160     2.5   973.9    0.00 
  84    5:50   0.00   50.3    80    0.6   180     2.3   974.0    0.00 
  84    6:00   0.01   50.4    80    0.8   130     2.5   974.0    0.00 
  84    6:10   0.01   50.7    79    0.8   125     1.8   974.1    0.00 
  84    6:20   0.02   51.0    78    0.7   257     2.3   974.3    0.00 
  84    6:30   0.03   50.4    80    0.3   127     2.1   974.4    0.00 
  84    6:40   0.04   50.4    80    2.0   120     3.5   974.4    0.00 
  84    6:50   0.11   51.9    77    1.2   114     2.8   974.5    0.00 
  84    7:00   0.15   55.9    71    0.1   311     1.1   974.6    0.00 
  84    7:10   0.18   56.9    69    0.3    61     1.3   974.7    0.00 
  84    7:20   0.22   56.9    70    0.7    71     1.5   974.9    0.00 
  84    7:30   0.25   56.4    72    1.6   110     2.4   975.1    0.00 
  84    7:40   0.29   56.6    73    1.6   124     2.8   975.1    0.00 
  84    7:50   0.32   59.6    66    0.9    93     2.0   975.3    0.00 
  84    8:00   0.36   61.0    65    1.0   339     2.8   975.5    0.00 
  84    8:10   0.39   61.6    62    3.9   276     5.8   975.7    0.00 
  84    8:20   0.43   60.7    64    2.3   293     4.9   975.9    0.00 
  84    8:30   0.46   59.6    66    1.7    85     3.5   975.8    0.00 
  84    8:40   0.49   61.7    63    1.3   296     2.8   975.8    0.00 
  84    8:50   0.53   64.9    57    2.5   276     3.6   975.8    0.00 
  84    9:00   0.56   66.0    53    2.1   282     3.8   975.8    0.00 
  84    9:10   0.59   66.4    53    1.4   286     3.4   975.7    0.00 
  84    9:20   0.62   66.9    53    1.7   284     4.2   975.6    0.00 
  84    9:30   0.65   67.6    51    2.4   282     4.6   975.5    0.00 
  84    9:40   0.67   68.5    49    3.3   272     5.3   975.5    0.00 
  84    9:50   0.69   70.2    47    2.6   286     6.1   975.5    0.00 
  84   10:00   0.72   70.3    46    2.8   283     5.0   975.4    0.00 
  84   10:10   0.74   70.3    46    2.1   286     4.9   975.3    0.00 
  84   10:20   0.76   70.4    46    2.7   275     5.5   975.3    0.00 
  84   10:30   0.78   71.9    45    3.8   276     8.0   975.2    0.00 
  84   10:40   0.79   73.1    43    3.5   278     7.0   975.1    0.00 
  84   10:50   0.81   73.9    42    3.8   281     8.0   974.9    0.00 
  84   11:00   0.82   74.8    40    3.8   276     7.3   974.9    0.00 
  84   11:10   0.83   74.2    39    2.3   274     7.2   974.8    0.00 
  84   11:20   0.84   73.7    39    3.4   286     6.8   974.7    0.00 
  84   11:30   0.85   74.2    40    3.7   272     7.5   974.5    0.00 
  84   11:40   0.86   75.5    39    4.2   278     8.8   974.5    0.00 
  84   11:50   0.87   76.3    37    4.2   279     8.5   974.3    0.00 
  84   12:00   0.87   74.6    27    4.1   202     9.6   974.3    0.00 
  84   12:10   0.87   74.7    23    3.9   188     8.8   974.2    0.00 
  84   12:20   0.87   74.3    22    4.1   177    10.9   974.1    0.00 
  84   12:30   0.84   74.2    21    5.6   179    11.6   974.0    0.00 
  84   12:40   0.86   73.3    20    9.4   147    14.9   973.9    0.00 
  84   12:50   0.85   72.4    19    9.6   145    14.1   973.8    0.00 
  84   13:00   0.85   73.3    21    6.5   147    11.6   973.7    0.00 
  84   13:10   0.84   72.7    23    9.6   140    14.0   973.6    0.00 
  84   13:20   0.83   72.6    24    8.9   137    12.9   973.5    0.00 
  84   13:30   0.82   72.7    26    7.5   137    12.6   973.4    0.00 
  84   13:40   0.80   73.2    27    5.6   146    10.7   973.3    0.00 
  84   13:50   0.79   73.2    26    6.6   150    12.2   973.3    0.00 
  84   14:00   0.77   72.4    26    7.9   155    12.5   973.2    0.00 
  84   14:10   0.74   72.0    27    7.6   145    13.2   973.1    0.00 
  84   14:20   0.72   72.0    26    6.5   152    11.6   973.1    0.00 
  84   14:30   0.70   72.9    26    3.5   163     7.0   973.1    0.00 
  84   14:40   0.67   72.8    28    2.9    58     6.7   973.1    0.00 
  84   14:50   0.65   74.6    31    2.3   296     6.9   973.1    0.00 
  84   15:00   0.62   75.2    31    3.1   304     7.7   973.1    0.00 
  84   15:10   0.59   74.8    33    3.2   306    10.3   973.0    0.00 
  84   15:20   0.56   74.6    33    2.2   294     8.3   972.9    0.00 
  84   15:30   0.53   73.5    34    2.3   292     7.8   972.9    0.00 
  84   15:40   0.50   72.8    33    3.0   285     8.2   972.9    0.00 
  84   15:50   0.47   72.4    32    3.4   282    10.4   972.9    0.00 
  84   16:00   0.43   72.2    35    3.0   287     9.8   972.8    0.00 
  84   16:10   0.40   72.1    40    1.7   295     5.4   972.7    0.00 
  84   16:20   0.36   71.1    45    2.1   304     7.7   972.8    0.00 
  84   16:30   0.32   70.0    48    2.5   298     8.3   972.8    0.00 
  84   16:40   0.28   69.3    49    1.8   307     4.8   972.7    0.00 
  84   16:50   0.25   68.2    51    1.9   299     5.6   972.6    0.00 
  84   17:00   0.21   67.2    51    1.5   298     5.3   972.6    0.00 
  84   17:10   0.17   66.3    53    1.9   292     4.7   972.6    0.00 
  84   17:20   0.14   65.5    54    1.1   291     4.7   972.5    0.00 
  84   17:30   0.11   64.2    56    1.1   288     3.9   972.5    0.00 
  84   17:40   0.07   62.7    59    0.9   285     4.0   972.4    0.00 
  84   17:50   0.03   60.7    63    1.5   289     4.2   972.5    0.00 
  84   18:00   0.01   59.4    64    1.5   276     4.1   972.5    0.00 
  84   18:10   0.01   58.5    64    1.8   251     3.4   972.5    0.00 
  84   18:20   0.00   57.1    68    1.9   251     4.0   972.6    0.00 
  84   18:30   0.00   56.5    68    2.0   246     4.4   972.6    0.00 
  84   18:40   0.00   56.1    68    2.0   244     3.5   972.6    0.00 
  84   18:50   0.00   55.7    68    2.5   238     4.6   972.7    0.00 
  84   19:00   0.00   55.4    68    2.7   230     3.9   972.7    0.00 
  84   19:10   0.00   54.9    69    2.3   224     3.7   972.8    0.00 
  84   19:20   0.00   54.3    70    2.8   204     4.1   972.8    0.00 
  84   19:30   0.00   54.2    70    2.1   215     3.0   972.8    0.00 
  84   19:40   0.00   53.2    72    2.1   241     3.0   972.9    0.00 
  84   19:50   0.00   53.3    71    3.4   208     5.0   973.0    0.00 
  84   20:00   0.00   53.5    71    3.2   223     4.2   973.1    0.00 
  84   20:10   0.00   53.7    70    3.5   215     5.0   973.1    0.00 
  84   20:20   0.00   53.9    70    3.2   219     5.0   973.2    0.00 
  84   20:30   0.00   53.8    69    2.9   215     4.2   973.2    0.00 
  84   20:40   0.00   53.0    70    3.4   217     4.5   973.2    0.00 
  84   20:50   0.00   52.6    70    3.1   226     4.4   973.2    0.00 
  84   21:00   0.00   53.2    69    3.8   216     5.0   973.3    0.00 
  84   21:10   0.00   53.4    69    3.6   219     5.3   973.4    0.00 
  84   21:20   0.00   53.3    70    4.6   208     5.9   973.3    0.00 
  84   21:30   0.00   53.5    69    3.9   218     5.8   973.2    0.00 
  84   21:40   0.00   53.7    69    2.2   238     3.8   973.1    0.00 
  84   21:50   0.00   54.0    68    2.7   219     3.9   973.0    0.00 
  84   22:00   0.00   53.1    69    1.2   233     3.7   972.9    0.00 

Return to Stunt Ranch Reserve graphs page.


Western Regional Climate Center,wrcc@dri.edu